createdAt,value
2024-04-18T00:04:33.695Z,5.20
2024-04-18T00:09:41.153Z,5.40
2024-04-18T00:14:46.249Z,5.20
2024-04-18T00:19:50.913Z,5.10
2024-04-18T00:24:58.244Z,5.00
2024-04-18T00:30:02.991Z,5.00
2024-04-18T00:35:08.312Z,5.00
2024-04-18T00:40:15.819Z,4.80
2024-04-18T00:45:21.292Z,4.80
2024-04-18T00:50:26.598Z,4.80
2024-04-18T00:55:34.873Z,4.80
2024-04-18T01:00:39.975Z,4.70
2024-04-18T01:05:45.687Z,4.70
2024-04-18T01:10:53.088Z,4.70
2024-04-18T01:15:57.788Z,4.60
2024-04-18T01:21:02.923Z,4.70
2024-04-18T01:26:15.990Z,4.90
2024-04-18T01:31:20.599Z,4.90
2024-04-18T01:36:25.423Z,5.00
2024-04-18T01:41:32.781Z,5.00
2024-04-18T01:46:37.480Z,5.10
2024-04-18T01:51:42.322Z,5.20
2024-04-18T01:56:49.979Z,5.20
2024-04-18T02:01:55.121Z,5.00
2024-04-18T02:06:59.799Z,5.20
2024-04-18T02:12:07.683Z,5.10
2024-04-18T02:17:12.398Z,5.10
2024-04-18T02:22:17.096Z,5.10
2024-04-18T02:27:24.458Z,5.10
2024-04-18T02:32:29.279Z,5.10
2024-04-18T02:37:34.085Z,5.10
2024-04-18T02:42:41.774Z,5.30
2024-04-18T02:47:46.583Z,5.20
2024-04-18T02:52:51.293Z,5.10
2024-04-18T02:57:58.576Z,5.20
2024-04-18T03:03:03.261Z,5.30
2024-04-18T03:08:08.722Z,5.30
2024-04-18T03:13:15.981Z,5.50
2024-04-18T03:18:20.732Z,5.50
2024-04-18T03:23:25.560Z,5.40
2024-04-18T03:28:32.939Z,5.20
2024-04-18T03:33:37.685Z,5.00
2024-04-18T03:38:42.414Z,5.00
2024-04-18T03:43:49.829Z,4.90
2024-04-18T03:48:54.504Z,4.80
2024-04-18T03:53:59.263Z,4.80
2024-04-18T03:59:06.542Z,5.00
2024-04-18T04:04:11.381Z,5.10
2024-04-18T04:09:16.146Z,5.10
2024-04-18T04:14:23.461Z,5.00
2024-04-18T04:19:28.268Z,4.80
2024-04-18T04:24:33.351Z,4.70
2024-04-18T04:29:40.746Z,4.60
2024-04-18T04:34:45.478Z,4.50
2024-04-18T04:39:50.455Z,4.40
2024-04-18T04:44:57.772Z,4.50
2024-04-18T04:50:02.688Z,4.40
2024-04-18T04:55:07.678Z,4.60
2024-04-18T05:00:16.422Z,4.60
2024-04-18T05:05:21.110Z,4.60
2024-04-18T05:10:25.834Z,4.60
2024-04-18T05:15:33.167Z,4.70
2024-04-18T05:20:38.191Z,4.60
2024-04-18T05:25:42.866Z,4.40
2024-04-18T05:31:06.180Z,4.30
2024-04-18T05:36:11.633Z,4.50
2024-04-18T05:41:16.300Z,4.70
2024-04-18T05:46:23.721Z,4.70
2024-04-18T05:51:28.459Z,4.80
2024-04-18T05:56:33.190Z,5.00
2024-04-18T06:01:40.495Z,5.00
2024-04-18T06:06:45.169Z,5.00
2024-04-18T06:11:49.962Z,5.10
2024-04-18T06:16:57.267Z,5.30
2024-04-18T06:22:01.915Z,5.20
2024-04-18T06:27:06.594Z,5.30
2024-04-18T06:32:13.877Z,5.30
2024-04-18T06:37:18.586Z,5.60
2024-04-18T06:42:23.294Z,5.70
2024-04-18T06:47:30.661Z,5.80
2024-04-18T06:52:35.828Z,5.70
2024-04-18T06:57:40.533Z,5.90
2024-04-18T07:02:48.344Z,6.00
2024-04-18T07:07:55.811Z,6.00
2024-04-18T07:13:00.538Z,6.10
2024-04-18T07:18:08.332Z,6.20
2024-04-18T07:23:13.062Z,6.30
2024-04-18T07:28:20.264Z,6.50
2024-04-18T07:33:27.807Z,6.80
2024-04-18T07:38:32.604Z,6.60
2024-04-18T07:43:37.258Z,6.80
2024-04-18T07:48:44.665Z,7.10
2024-04-18T07:53:49.429Z,7.80
2024-04-18T07:58:54.879Z,8.80
2024-04-18T08:04:18.039Z,9.70
2024-04-18T08:09:30.026Z,10.10
2024-04-18T08:14:40.493Z,10.30
2024-04-18T08:19:50.397Z,10.70
2024-04-18T08:24:55.096Z,10.70
2024-04-18T08:29:59.861Z,10.10
2024-04-18T08:35:08.186Z,9.60
2024-04-18T08:40:13.681Z,9.40
2024-04-18T08:45:18.633Z,9.30
2024-04-18T08:50:26.938Z,9.50
2024-04-18T08:55:36.272Z,9.40
2024-04-18T09:00:44.224Z,9.70
2024-04-18T09:05:51.744Z,9.70
2024-04-18T09:10:56.642Z,10.20
2024-04-18T09:16:01.721Z,10.30
2024-04-18T09:21:11.401Z,9.80
2024-04-18T09:26:16.188Z,9.80
2024-04-18T09:31:30.339Z,9.80
2024-04-18T09:36:44.289Z,9.70
2024-04-18T09:41:54.941Z,9.80
2024-04-18T09:47:00.768Z,9.90
2024-04-18T09:52:09.226Z,10.20
2024-04-18T09:57:14.626Z,10.90
2024-04-18T10:02:22.383Z,10.60
2024-04-18T10:07:30.695Z,11.00
2024-04-18T10:12:36.362Z,10.90
2024-04-18T10:17:41.171Z,10.90
2024-04-18T10:22:58.691Z,10.90
2024-04-18T10:28:03.411Z,11.50
2024-04-18T10:33:11.748Z,10.80
2024-04-18T10:38:27.636Z,10.90
2024-04-18T10:43:32.578Z,11.80
2024-04-18T10:48:37.991Z,11.80
2024-04-18T10:53:45.332Z,11.50
2024-04-18T10:58:50.189Z,11.60
2024-04-18T11:03:55.503Z,12.00
2024-04-18T11:09:03.542Z,12.20
2024-04-18T11:14:10.202Z,12.00
2024-04-18T11:19:16.943Z,12.20
2024-04-18T11:24:25.015Z,12.20
2024-04-18T11:29:30.766Z,11.70
2024-04-18T11:34:35.538Z,11.50
2024-04-18T11:39:43.368Z,11.70
2024-04-18T11:44:48.206Z,11.80
2024-04-18T11:49:52.957Z,11.80
2024-04-18T11:55:00.271Z,11.80
2024-04-18T12:00:05.046Z,12.10
2024-04-18T12:05:10.469Z,12.00
2024-04-18T12:10:17.805Z,11.80
2024-04-18T12:15:22.525Z,11.90
2024-04-18T12:20:27.587Z,12.20
2024-04-18T12:25:34.916Z,12.00
2024-04-18T12:30:40.063Z,12.10
2024-04-18T12:35:45.140Z,12.20
2024-04-18T12:40:52.459Z,12.50
2024-04-18T12:46:06.744Z,12.20
2024-04-18T12:51:19.701Z,12.90
2024-04-18T12:56:27.198Z,13.10
2024-04-18T13:01:31.960Z,12.90
2024-04-18T13:06:36.983Z,12.80
2024-04-18T13:11:45.889Z,13.20
2024-04-18T13:16:54.349Z,12.80
2024-04-18T13:22:00.633Z,12.50
2024-04-18T13:27:08.713Z,12.50
2024-04-18T13:32:13.403Z,12.10
2024-04-18T13:37:18.151Z,12.40
2024-04-18T13:42:25.574Z,12.40
2024-04-18T13:47:30.384Z,12.70
2024-04-18T13:52:35.142Z,12.80
2024-04-18T13:57:42.483Z,13.00
2024-04-18T14:02:47.394Z,12.70
2024-04-18T14:07:52.104Z,12.80
2024-04-18T14:12:59.382Z,12.50
2024-04-18T14:18:19.868Z,12.20
2024-04-18T14:23:24.707Z,12.20
2024-04-18T14:28:33.473Z,12.30
2024-04-18T14:33:39.674Z,12.40
2024-04-18T14:38:44.705Z,12.00
2024-04-18T14:43:51.994Z,12.40
2024-04-18T14:48:57.039Z,12.30
2024-04-18T14:54:01.695Z,12.20
2024-04-18T14:59:08.999Z,12.30
2024-04-18T15:04:13.976Z,12.30
2024-04-18T15:09:19.384Z,12.50
2024-04-18T15:14:26.809Z,12.50
2024-04-18T15:19:31.832Z,12.10
2024-04-18T15:24:38.559Z,12.40
2024-04-18T15:29:45.998Z,12.30
2024-04-18T15:34:50.984Z,12.30
2024-04-18T15:39:55.700Z,12.10
2024-04-18T15:45:03.305Z,12.30
2024-04-18T15:50:08.670Z,12.20
2024-04-18T15:55:20.043Z,12.30
2024-04-18T16:00:29.585Z,12.30
2024-04-18T16:05:34.333Z,12.30
2024-04-18T16:10:39.194Z,12.20
2024-04-18T16:15:46.529Z,12.20
2024-04-18T16:20:57.264Z,12.10
2024-04-18T16:26:02.003Z,11.90
2024-04-18T16:31:09.417Z,11.90
2024-04-18T16:36:27.147Z,12.10
2024-04-18T16:41:36.755Z,12.00
2024-04-18T16:46:44.063Z,12.00
2024-04-18T16:51:49.632Z,11.90
2024-04-18T16:56:54.403Z,11.80
2024-04-18T17:02:01.788Z,11.80
2024-04-18T17:07:07.469Z,11.90
2024-04-18T17:12:13.846Z,11.80
2024-04-18T17:17:22.397Z,11.70
2024-04-18T17:22:27.237Z,11.50
2024-04-18T17:27:32.015Z,11.50
2024-04-18T17:32:40.714Z,11.40
2024-04-18T17:37:45.407Z,11.30
2024-04-18T17:42:50.159Z,11.30
2024-04-18T17:47:57.603Z,11.20
2024-04-18T17:53:02.424Z,11.20
2024-04-18T17:58:07.500Z,11.20
2024-04-18T18:03:14.866Z,11.10
2024-04-18T18:08:19.942Z,11.00
2024-04-18T18:13:24.657Z,10.90
2024-04-18T18:18:32.999Z,10.90
2024-04-18T18:23:39.247Z,10.90
2024-04-18T18:28:44.044Z,10.80
2024-04-18T18:33:51.869Z,10.70
2024-04-18T18:38:56.607Z,10.60
2024-04-18T18:44:01.312Z,10.50
2024-04-18T18:49:08.689Z,10.50
2024-04-18T18:54:13.493Z,10.50
2024-04-18T18:59:18.211Z,10.50
2024-04-18T19:04:26.320Z,10.50
2024-04-18T19:09:32.554Z,10.60
2024-04-18T19:14:37.360Z,10.60
2024-04-18T19:19:44.728Z,10.50
2024-04-18T19:24:49.440Z,10.40
2024-04-18T19:29:55.691Z,10.30
2024-04-18T19:35:03.003Z,10.30
2024-04-18T19:40:08.497Z,10.20
2024-04-18T19:45:13.213Z,10.10
2024-04-18T19:50:20.679Z,10.10
2024-04-18T19:55:25.343Z,10.10
2024-04-18T20:00:30.056Z,10.00
2024-04-18T20:05:37.957Z,10.00
2024-04-18T20:10:43.372Z,9.90
2024-04-18T20:15:48.134Z,9.80
2024-04-18T20:20:55.463Z,9.90
2024-04-18T20:26:00.126Z,9.60
2024-04-18T20:31:04.807Z,9.60
2024-04-18T20:36:12.162Z,9.60
2024-04-18T20:41:16.846Z,9.70
2024-04-18T20:46:25.628Z,9.60
2024-04-18T20:51:32.954Z,9.70
2024-04-18T20:56:37.575Z,9.60
2024-04-18T21:01:42.245Z,9.60
2024-04-18T21:06:49.711Z,9.50
2024-04-18T21:11:54.479Z,9.50
2024-04-18T21:16:59.182Z,9.40
2024-04-18T21:22:06.766Z,9.40
2024-04-18T21:27:11.504Z,9.40
2024-04-18T21:32:17.572Z,9.40
2024-04-18T21:37:24.828Z,9.30
2024-04-18T21:42:29.867Z,9.20
2024-04-18T21:47:34.634Z,9.20
2024-04-18T21:52:42.064Z,9.10
2024-04-18T21:57:46.807Z,9.20
2024-04-18T22:02:51.551Z,9.10
2024-04-18T22:08:01.844Z,8.90
2024-04-18T22:13:06.765Z,8.90
2024-04-18T22:18:11.624Z,8.90
2024-04-18T22:23:19.035Z,9.00
2024-04-18T22:28:23.720Z,8.90
2024-04-18T22:33:28.605Z,8.80
2024-04-18T22:38:35.999Z,8.90
2024-04-18T22:43:40.604Z,8.80
2024-04-18T22:48:45.888Z,8.90
2024-04-18T22:53:53.253Z,8.90
2024-04-18T22:58:57.945Z,8.90
2024-04-18T23:04:02.809Z,8.90
2024-04-18T23:09:11.589Z,8.80
2024-04-18T23:14:16.276Z,8.80
2024-04-18T23:19:20.992Z,8.80
2024-04-18T23:24:28.338Z,8.70
2024-04-18T23:29:33.426Z,8.60
2024-04-18T23:34:38.222Z,8.60
2024-04-18T23:39:45.589Z,8.70
2024-04-18T23:44:50.259Z,8.70
2024-04-18T23:49:54.919Z,8.60
2024-04-18T23:55:02.250Z,8.70
